createdAt,value
2019-05-18T00:01:57.843Z,5.40
2019-05-18T00:04:28.057Z,5.35
2019-05-18T00:06:58.224Z,5.30
2019-05-18T00:09:28.435Z,5.40
2019-05-18T00:11:58.652Z,5.10
2019-05-18T00:14:30.651Z,5.12
2019-05-18T00:17:00.879Z,5.05
2019-05-18T00:19:31.160Z,5.28
2019-05-18T00:22:01.398Z,5.40
2019-05-18T00:24:32.540Z,5.37
2019-05-18T00:27:02.770Z,6.00
2019-05-18T00:29:32.912Z,5.83
2019-05-18T00:32:03.220Z,5.60
2019-05-18T00:34:33.410Z,5.75
2019-05-18T00:37:04.737Z,5.50
2019-05-18T00:39:35.034Z,5.75
2019-05-18T00:42:05.160Z,5.80
2019-05-18T00:44:35.239Z,5.80
2019-05-18T00:47:05.387Z,5.30
2019-05-18T00:49:35.626Z,5.83
2019-05-18T00:52:05.842Z,5.37
2019-05-18T00:54:36.142Z,5.35
2019-05-18T00:57:06.442Z,5.05
2019-05-18T00:59:36.664Z,5.15
2019-05-18T01:02:06.798Z,4.90
2019-05-18T01:04:36.984Z,5.15
2019-05-18T01:07:07.196Z,5.50
2019-05-18T01:09:37.372Z,5.05
2019-05-18T01:12:07.593Z,5.78
2019-05-18T01:14:37.614Z,5.45
2019-05-18T01:17:07.820Z,4.80
2019-05-18T01:19:37.984Z,5.10
2019-05-18T01:22:08.053Z,5.25
2019-05-18T01:24:38.220Z,5.20
2019-05-18T01:27:08.364Z,5.47
2019-05-18T01:29:38.448Z,5.40
2019-05-18T01:32:08.667Z,6.17
2019-05-18T01:34:38.933Z,5.90
2019-05-18T01:37:09.055Z,6.45
2019-05-18T01:39:39.317Z,6.10
2019-05-18T01:42:10.957Z,5.97
2019-05-18T01:44:41.258Z,5.90
2019-05-18T01:47:11.468Z,6.03
2019-05-18T01:49:41.625Z,5.65
2019-05-18T01:52:11.883Z,5.28
2019-05-18T01:54:42.124Z,5.17
2019-05-18T01:57:12.205Z,6.08
2019-05-18T01:59:42.509Z,5.30
2019-05-18T02:02:12.664Z,5.50
2019-05-18T02:04:42.881Z,5.92
2019-05-18T02:07:13.017Z,6.70
2019-05-18T02:09:43.331Z,7.42
2019-05-18T02:12:13.448Z,8.38
2019-05-18T02:14:43.620Z,8.60
2019-05-18T02:17:13.716Z,9.20
2019-05-18T02:19:44.020Z,8.65
2019-05-18T02:22:14.335Z,9.13
2019-05-18T02:24:44.489Z,8.85
2019-05-18T02:27:14.659Z,7.97
2019-05-18T02:29:44.878Z,8.58
2019-05-18T02:32:14.951Z,8.75
2019-05-18T02:34:45.060Z,8.93
2019-05-18T02:37:15.226Z,9.70
2019-05-18T02:39:45.352Z,8.80
2019-05-18T02:42:15.600Z,9.03
2019-05-18T02:44:45.694Z,8.08
2019-05-18T02:47:15.858Z,8.40
2019-05-18T02:49:45.924Z,8.73
2019-05-18T02:52:16.072Z,9.08
2019-05-18T02:54:46.241Z,7.70
2019-05-18T02:57:17.958Z,7.78
2019-05-18T02:59:48.141Z,7.65
2019-05-18T03:02:18.488Z,7.47
2019-05-18T03:04:48.661Z,7.37
2019-05-18T03:07:18.733Z,5.92
2019-05-18T03:09:48.868Z,6.62
2019-05-18T03:12:18.949Z,6.47
2019-05-18T03:14:49.473Z,5.95
2019-05-18T03:17:19.731Z,5.90
2019-05-18T03:19:49.930Z,5.17
2019-05-18T03:22:20.171Z,5.03
2019-05-18T03:24:50.377Z,5.53
2019-05-18T03:27:20.528Z,4.58
2019-05-18T03:29:50.614Z,4.53
2019-05-18T03:32:20.866Z,4.50
2019-05-18T03:34:51.079Z,4.20
2019-05-18T03:37:21.156Z,4.47
2019-05-18T03:39:51.318Z,3.87
2019-05-18T03:42:21.553Z,3.60
2019-05-18T03:44:51.688Z,3.85
2019-05-18T03:47:21.921Z,3.60
2019-05-18T03:49:52.134Z,3.40
2019-05-18T03:52:22.279Z,4.03
2019-05-18T03:54:52.490Z,3.47
2019-05-18T03:57:22.583Z,2.83
2019-05-18T03:59:52.857Z,3.20
2019-05-18T04:02:23.082Z,3.00
2019-05-18T04:04:53.291Z,3.37
2019-05-18T04:07:23.467Z,3.33
2019-05-18T04:09:53.686Z,3.30
2019-05-18T04:12:23.824Z,3.58
2019-05-18T04:14:54.040Z,3.92
2019-05-18T04:17:24.330Z,3.85
2019-05-18T04:19:54.554Z,3.85
2019-05-18T04:22:24.650Z,3.83
2019-05-18T04:24:56.455Z,3.83
2019-05-18T04:27:26.625Z,4.22
2019-05-18T04:29:56.865Z,4.58
2019-05-18T04:32:27.085Z,4.12
2019-05-18T04:34:57.156Z,4.25
2019-05-18T04:37:27.362Z,4.17
2019-05-18T04:39:57.522Z,4.25
2019-05-18T04:42:27.665Z,4.70
2019-05-18T04:44:57.971Z,4.90
2019-05-18T04:47:28.171Z,4.67
2019-05-18T04:50:05.023Z,5.03
2019-05-18T04:52:29.966Z,5.42
2019-05-18T04:55:00.258Z,5.42
2019-05-18T04:57:30.338Z,4.83
2019-05-18T05:00:00.498Z,5.12
2019-05-18T05:02:30.572Z,4.70
2019-05-18T05:05:00.591Z,5.53
2019-05-18T05:07:30.756Z,5.50
2019-05-18T05:10:04.517Z,5.55
2019-05-18T05:12:34.538Z,5.22
2019-05-18T05:15:05.916Z,5.42
2019-05-18T05:17:36.216Z,5.55
2019-05-18T05:20:19.229Z,5.87
2019-05-18T05:22:41.347Z,4.95
2019-05-18T05:25:11.648Z,5.85
2019-05-18T05:27:41.730Z,5.80
2019-05-18T05:30:12.047Z,6.05
2019-05-18T05:32:42.278Z,5.60
2019-05-18T05:35:12.506Z,6.22
2019-05-18T05:37:42.575Z,6.67
2019-05-18T05:40:12.870Z,6.30
2019-05-18T05:42:43.030Z,5.90
2019-05-18T05:45:13.425Z,6.87
2019-05-18T05:47:43.584Z,5.50
2019-05-18T05:50:13.735Z,5.85
2019-05-18T05:52:43.899Z,5.30
2019-05-18T05:55:14.177Z,5.37
2019-05-18T05:57:44.338Z,4.42
2019-05-18T06:00:14.589Z,4.62
2019-05-18T06:02:44.725Z,4.42
2019-05-18T06:05:15.147Z,3.83
2019-05-18T06:07:45.372Z,3.00
2019-05-18T06:10:16.466Z,3.10
2019-05-18T06:12:46.710Z,3.65
2019-05-18T06:15:16.853Z,2.80
2019-05-18T06:17:47.098Z,2.95
2019-05-18T06:20:17.356Z,3.92
2019-05-18T06:22:47.581Z,5.22
2019-05-18T06:25:17.709Z,2.85
2019-05-18T06:27:47.846Z,2.72
2019-05-18T06:30:18.341Z,2.65
2019-05-18T06:32:48.560Z,2.65
2019-05-18T06:35:18.719Z,3.10
2019-05-18T06:37:48.934Z,2.87
2019-05-18T06:40:19.135Z,2.92
2019-05-18T06:42:49.317Z,3.58
2019-05-18T06:45:19.467Z,2.77
2019-05-18T06:47:49.563Z,3.10
2019-05-18T06:50:23.904Z,2.62
2019-05-18T06:52:54.049Z,3.27
2019-05-18T06:55:25.381Z,3.00
2019-05-18T06:57:58.951Z,2.62
2019-05-18T07:00:30.244Z,2.92
2019-05-18T07:03:00.332Z,2.27
2019-05-18T07:05:30.484Z,2.42
2019-05-18T07:08:00.700Z,2.30
2019-05-18T07:10:30.810Z,2.30
2019-05-18T07:13:01.030Z,2.40
2019-05-18T07:15:31.270Z,2.40
2019-05-18T07:18:01.487Z,2.35
2019-05-18T07:20:31.716Z,1.90
2019-05-18T07:23:01.935Z,2.20
2019-05-18T07:25:32.158Z,2.20
2019-05-18T07:28:03.403Z,2.12
2019-05-18T07:30:33.558Z,2.25
2019-05-18T07:33:03.827Z,1.98
2019-05-18T07:35:33.920Z,2.15
2019-05-18T07:38:04.130Z,2.00
2019-05-18T07:40:34.281Z,2.60
2019-05-18T07:43:04.551Z,2.30
2019-05-18T07:45:34.791Z,2.10
2019-05-18T07:48:04.943Z,2.17
2019-05-18T07:50:35.035Z,2.00
2019-05-18T07:53:05.258Z,2.20
2019-05-18T07:55:35.489Z,2.25
2019-05-18T07:58:05.718Z,2.15
2019-05-18T08:00:36.002Z,2.37
2019-05-18T08:03:06.294Z,2.62
2019-05-18T08:05:36.598Z,2.05
2019-05-18T08:08:06.769Z,2.00
2019-05-18T08:10:38.034Z,2.10
2019-05-18T08:13:08.724Z,2.02
2019-05-18T08:15:38.889Z,2.00
2019-05-18T08:18:09.248Z,1.90
2019-05-18T08:20:39.422Z,1.90
2019-05-18T08:23:09.707Z,1.60
2019-05-18T08:25:39.874Z,1.70
2019-05-18T08:28:09.989Z,1.80
2019-05-18T08:30:43.121Z,1.67
2019-05-18T08:33:13.305Z,1.75
2019-05-18T08:35:43.541Z,1.52
2019-05-18T08:38:13.789Z,1.20
2019-05-18T08:40:43.860Z,1.60
2019-05-18T08:43:14.102Z,1.52
2019-05-18T08:45:44.338Z,1.62
2019-05-18T08:48:14.414Z,1.70
2019-05-18T08:50:44.558Z,1.70
2019-05-18T08:53:14.636Z,1.50
2019-05-18T08:55:44.864Z,1.80
2019-05-18T08:58:15.139Z,2.02
2019-05-18T09:00:45.226Z,1.50
2019-05-18T09:03:15.353Z,1.70
2019-05-18T09:05:45.499Z,1.80
2019-05-18T09:08:15.790Z,1.62
2019-05-18T09:10:45.878Z,1.67
2019-05-18T09:13:16.018Z,1.45
2019-05-18T09:15:46.317Z,1.57
2019-05-18T09:18:16.420Z,1.60
2019-05-18T09:20:46.579Z,1.80
2019-05-18T09:23:16.677Z,1.90
2019-05-18T09:25:47.126Z,1.60
2019-05-18T09:28:17.341Z,1.40
2019-05-18T09:30:47.484Z,2.50
2019-05-18T09:33:17.625Z,2.00
2019-05-18T09:35:47.930Z,1.80
2019-05-18T09:38:18.017Z,1.55
2019-05-18T09:40:48.097Z,1.70
2019-05-18T09:43:19.345Z,2.00
2019-05-18T09:45:49.434Z,2.00
2019-05-18T09:48:19.712Z,1.82
2019-05-18T09:50:49.931Z,2.12
2019-05-18T09:53:20.144Z,1.90
2019-05-18T09:55:50.254Z,1.75
2019-05-18T09:58:20.531Z,2.33
2019-05-18T10:00:50.843Z,1.90
2019-05-18T10:03:21.142Z,1.50
2019-05-18T10:05:51.437Z,1.67
2019-05-18T10:08:21.747Z,1.67
2019-05-18T10:10:51.904Z,1.70
2019-05-18T10:13:22.060Z,1.62
2019-05-18T10:15:52.288Z,1.85
2019-05-18T10:18:22.571Z,1.60
2019-05-18T10:20:52.756Z,1.47
2019-05-18T10:23:22.986Z,1.80
2019-05-18T10:25:53.298Z,1.65
2019-05-18T10:28:23.461Z,1.90
2019-05-18T10:30:53.714Z,2.17
2019-05-18T10:33:23.868Z,1.80
2019-05-18T10:35:54.162Z,1.85
2019-05-18T10:38:24.405Z,1.67
2019-05-18T10:40:54.553Z,2.00
2019-05-18T10:43:24.820Z,1.92
2019-05-18T10:45:56.369Z,1.60
2019-05-18T10:48:26.511Z,2.02
2019-05-18T10:50:56.768Z,1.90
2019-05-18T10:53:29.005Z,1.75
2019-05-18T10:55:59.681Z,2.00
2019-05-18T10:58:29.902Z,2.50
2019-05-18T11:01:00.075Z,2.15
2019-05-18T11:03:30.354Z,2.35
2019-05-18T11:06:00.657Z,1.90
2019-05-18T11:08:30.824Z,2.00
2019-05-18T11:11:00.971Z,3.08
2019-05-18T11:13:30.984Z,2.10
2019-05-18T11:16:01.151Z,2.50
2019-05-18T11:18:31.207Z,2.30
2019-05-18T11:21:01.797Z,2.85
2019-05-18T11:23:43.394Z,2.58
2019-05-18T11:26:03.709Z,2.30
2019-05-18T11:28:33.872Z,2.12
2019-05-18T11:31:04.027Z,2.35
2019-05-18T11:33:34.255Z,2.17
2019-05-18T11:36:04.410Z,2.27
2019-05-18T11:38:34.486Z,2.33
2019-05-18T11:41:04.654Z,2.72
2019-05-18T11:43:34.795Z,3.50
2019-05-18T11:46:05.021Z,3.12
2019-05-18T11:48:35.245Z,3.05
2019-05-18T11:51:05.493Z,3.42
2019-05-18T11:53:35.713Z,3.77
2019-05-18T11:56:06.024Z,4.00
2019-05-18T11:58:36.264Z,3.67
2019-05-18T12:01:06.560Z,4.12
2019-05-18T12:03:36.792Z,4.25
2019-05-18T12:06:07.002Z,3.80
2019-05-18T12:08:37.153Z,3.85
2019-05-18T12:11:07.380Z,4.33
2019-05-18T12:13:37.470Z,4.05
2019-05-18T12:16:07.628Z,3.52
2019-05-18T12:18:37.726Z,3.67
2019-05-18T12:21:07.891Z,3.65
2019-05-18T12:23:38.043Z,4.08
2019-05-18T12:26:08.177Z,3.55
2019-05-18T12:28:38.480Z,4.35
2019-05-18T12:31:08.646Z,4.12
2019-05-18T12:33:38.729Z,4.45
2019-05-18T12:36:08.957Z,4.47
2019-05-18T12:38:39.194Z,4.45
2019-05-18T12:41:10.304Z,4.33
2019-05-18T12:43:40.451Z,4.90
2019-05-18T12:46:10.650Z,4.58
2019-05-18T12:48:40.880Z,4.90
2019-05-18T12:51:11.162Z,5.40
2019-05-18T12:53:41.336Z,5.22
2019-05-18T12:56:11.538Z,5.25
2019-05-18T12:58:41.775Z,5.05
2019-05-18T13:01:11.928Z,4.95
2019-05-18T13:03:42.167Z,4.70
2019-05-18T13:06:13.949Z,4.58
2019-05-18T13:08:44.169Z,4.00
2019-05-18T13:11:14.245Z,4.22
2019-05-18T13:13:44.559Z,3.58
2019-05-18T13:16:14.778Z,3.60
2019-05-18T13:18:45.094Z,3.90
2019-05-18T13:21:15.362Z,3.77
2019-05-18T13:23:45.592Z,3.35
2019-05-18T13:26:15.819Z,3.67
2019-05-18T13:28:47.042Z,3.90
2019-05-18T13:31:17.179Z,3.77
2019-05-18T13:33:47.414Z,3.77
2019-05-18T13:36:17.720Z,4.28
2019-05-18T13:38:47.937Z,4.50
2019-05-18T13:41:18.040Z,3.08
2019-05-18T13:43:48.240Z,2.90
2019-05-18T13:46:18.380Z,3.25
2019-05-18T13:48:48.472Z,3.58
2019-05-18T13:51:18.693Z,3.10
2019-05-18T13:53:48.773Z,2.80
2019-05-18T13:56:19.010Z,3.10
2019-05-18T13:58:51.220Z,2.50
2019-05-18T14:01:21.541Z,2.55
2019-05-18T14:03:51.836Z,2.20
2019-05-18T14:06:22.005Z,2.58
2019-05-18T14:08:52.073Z,2.22
2019-05-18T14:11:22.282Z,2.40
2019-05-18T14:13:52.465Z,2.15
2019-05-18T14:16:22.589Z,2.33
2019-05-18T14:18:52.762Z,2.05
2019-05-18T14:21:23.032Z,1.98
2019-05-18T14:23:53.271Z,2.10
2019-05-18T14:26:23.502Z,1.92
2019-05-18T14:28:53.720Z,2.40
2019-05-18T14:31:23.878Z,2.60
2019-05-18T14:33:54.089Z,2.45
2019-05-18T14:36:24.233Z,3.02
2019-05-18T14:38:56.730Z,2.62
2019-05-18T14:41:26.156Z,3.75
2019-05-18T14:43:56.315Z,3.33
2019-05-18T14:46:26.389Z,2.92
2019-05-18T14:48:56.422Z,2.95
2019-05-18T14:51:26.645Z,3.35
2019-05-18T14:53:56.795Z,3.72
2019-05-18T14:56:26.888Z,3.87
2019-05-18T14:58:56.965Z,3.70
2019-05-18T15:01:27.203Z,3.40
2019-05-18T15:03:57.340Z,3.50
2019-05-18T15:06:27.676Z,3.83
2019-05-18T15:08:57.955Z,3.55
2019-05-18T15:11:28.227Z,3.80
2019-05-18T15:13:58.301Z,3.98
2019-05-18T15:16:28.525Z,3.47
2019-05-18T15:18:58.776Z,3.55
2019-05-18T15:21:28.996Z,3.58
2019-05-18T15:24:02.442Z,3.60
2019-05-18T15:26:33.200Z,3.72
2019-05-18T15:29:03.437Z,3.83
2019-05-18T15:31:33.826Z,4.00
2019-05-18T15:34:04.080Z,3.85
2019-05-18T15:36:34.378Z,3.90
2019-05-18T15:39:06.801Z,4.47
2019-05-18T15:41:37.029Z,4.28
2019-05-18T15:44:07.294Z,4.17
2019-05-18T15:46:37.427Z,4.08
2019-05-18T15:49:07.659Z,4.65
2019-05-18T15:51:37.846Z,4.60
2019-05-18T15:54:07.945Z,4.65
2019-05-18T15:56:38.163Z,5.08
2019-05-18T15:59:08.342Z,5.10
2019-05-18T16:01:38.485Z,5.42
2019-05-18T16:04:08.666Z,5.28
2019-05-18T16:06:38.859Z,5.75
2019-05-18T16:09:09.009Z,5.15
2019-05-18T16:11:39.027Z,5.50
2019-05-18T16:14:09.339Z,5.37
2019-05-18T16:16:39.558Z,5.40
2019-05-18T16:19:10.786Z,5.78
2019-05-18T16:21:40.924Z,5.55
2019-05-18T16:24:12.137Z,5.65
2019-05-18T16:26:42.351Z,5.58
2019-05-18T16:29:12.597Z,5.45
2019-05-18T16:31:42.747Z,5.30
2019-05-18T16:34:13.932Z,4.83
2019-05-18T16:36:44.079Z,5.33
2019-05-18T16:39:14.159Z,5.58
2019-05-18T16:41:45.456Z,5.53
2019-05-18T16:44:15.679Z,5.75
2019-05-18T16:46:45.782Z,6.10
2019-05-18T16:49:16.037Z,5.35
2019-05-18T16:51:46.189Z,5.67
2019-05-18T16:54:16.341Z,6.55
2019-05-18T16:56:46.500Z,5.97
2019-05-18T16:59:16.705Z,5.53
2019-05-18T17:01:46.925Z,6.12
2019-05-18T17:04:17.086Z,6.00
2019-05-18T17:06:47.238Z,6.20
2019-05-18T17:09:17.457Z,5.92
2019-05-18T17:11:48.231Z,5.87
2019-05-18T17:14:19.567Z,5.85
2019-05-18T17:16:49.814Z,6.08
2019-05-18T17:19:19.944Z,5.70
2019-05-18T17:21:50.180Z,6.40
2019-05-18T17:24:20.453Z,6.20
2019-05-18T17:26:53.300Z,6.05
2019-05-18T17:29:22.526Z,5.62
2019-05-18T17:31:52.709Z,5.65
2019-05-18T17:34:22.944Z,4.92
2019-05-18T17:36:53.248Z,5.28
2019-05-18T17:39:23.546Z,5.62
2019-05-18T17:41:53.752Z,5.03
2019-05-18T17:44:23.910Z,5.92
2019-05-18T17:47:06.213Z,6.15
2019-05-18T17:49:41.343Z,7.00
2019-05-18T17:52:11.894Z,6.55
2019-05-18T17:54:42.382Z,5.80
2019-05-18T17:57:12.459Z,5.50
2019-05-18T17:59:42.611Z,5.83
2019-05-18T18:02:12.819Z,6.22
2019-05-18T18:04:43.050Z,5.72
2019-05-18T18:07:13.287Z,5.78
2019-05-18T18:09:43.441Z,5.17
2019-05-18T18:12:13.738Z,5.87
2019-05-18T18:14:43.903Z,5.12
2019-05-18T18:17:17.174Z,5.60
2019-05-18T18:19:45.807Z,5.62
2019-05-18T18:22:15.968Z,5.80
2019-05-18T18:24:46.187Z,7.70
2019-05-18T18:27:24.949Z,6.83
2019-05-18T18:29:48.076Z,6.60
2019-05-18T18:32:19.754Z,6.75
2019-05-18T18:34:49.909Z,5.95
2019-05-18T18:37:20.009Z,6.00
2019-05-18T18:39:50.138Z,5.75
2019-05-18T18:42:20.394Z,6.12
2019-05-18T18:44:50.537Z,5.92
2019-05-18T18:47:21.764Z,5.28
2019-05-18T18:49:51.989Z,5.85
2019-05-18T18:52:22.226Z,5.78
2019-05-18T18:54:52.377Z,5.35
2019-05-18T18:57:22.692Z,5.92
2019-05-18T18:59:52.975Z,5.40
2019-05-18T19:02:23.078Z,6.28
2019-05-18T19:04:53.231Z,5.62
2019-05-18T19:07:23.380Z,5.17
2019-05-18T19:09:53.543Z,5.42
2019-05-18T19:12:23.692Z,5.20
2019-05-18T19:14:53.990Z,5.53
2019-05-18T19:17:24.135Z,5.42
2019-05-18T19:19:54.285Z,5.05
2019-05-18T19:22:24.510Z,5.03
2019-05-18T19:24:55.888Z,3.98
2019-05-18T19:27:26.395Z,3.60
2019-05-18T19:29:56.677Z,3.98
2019-05-18T19:32:26.906Z,4.10
2019-05-18T19:34:57.128Z,3.95
2019-05-18T19:37:27.202Z,4.10
2019-05-18T19:39:57.501Z,3.70
2019-05-18T19:42:27.784Z,3.92
2019-05-18T19:44:58.227Z,3.35
2019-05-18T19:47:28.370Z,3.70
2019-05-18T19:49:58.539Z,3.50
2019-05-18T19:52:28.675Z,3.00
2019-05-18T19:54:58.908Z,3.20
2019-05-18T19:57:30.207Z,3.30
2019-05-18T20:00:00.283Z,3.15
2019-05-18T20:02:31.714Z,3.20
2019-05-18T20:05:07.954Z,3.30
2019-05-18T20:07:33.691Z,3.17
2019-05-18T20:10:10.387Z,2.72
2019-05-18T20:12:40.721Z,3.00
2019-05-18T20:15:11.323Z,3.15
2019-05-18T20:17:41.485Z,3.08
2019-05-18T20:20:12.029Z,3.17
2019-05-18T20:22:42.058Z,3.15
2019-05-18T20:25:12.263Z,3.92
2019-05-18T20:27:42.363Z,4.05
2019-05-18T20:30:12.984Z,3.55
2019-05-18T20:32:43.241Z,2.90
2019-05-18T20:35:13.437Z,3.35
2019-05-18T20:37:43.766Z,3.08
2019-05-18T20:40:15.057Z,2.95
2019-05-18T20:42:45.231Z,2.70
2019-05-18T20:45:15.476Z,3.05
2019-05-18T20:47:45.792Z,4.03
2019-05-18T20:50:17.581Z,3.58
2019-05-18T20:52:47.812Z,3.30
2019-05-18T20:55:19.035Z,2.92
2019-05-18T20:57:49.238Z,3.35
2019-05-18T21:00:19.468Z,3.95
2019-05-18T21:02:49.612Z,4.03
2019-05-18T21:05:19.806Z,4.47
2019-05-18T21:07:49.958Z,5.10
2019-05-18T21:10:20.132Z,5.30
2019-05-18T21:12:50.405Z,6.10
2019-05-18T21:15:20.674Z,5.25
2019-05-18T21:17:50.884Z,5.87
2019-05-18T21:20:21.042Z,6.05
2019-05-18T21:22:51.270Z,7.08
2019-05-18T21:25:21.593Z,6.95
2019-05-18T21:27:51.774Z,6.05
2019-05-18T21:30:21.998Z,6.33
2019-05-18T21:32:52.113Z,7.10
2019-05-18T21:35:22.213Z,6.90
2019-05-18T21:37:52.416Z,6.83
2019-05-18T21:40:25.902Z,7.17
2019-05-18T21:42:54.446Z,7.53
2019-05-18T21:45:24.677Z,7.95
2019-05-18T21:47:54.778Z,7.42
2019-05-18T21:50:25.070Z,7.42
2019-05-18T21:52:55.243Z,7.78
2019-05-18T21:55:25.537Z,7.30
2019-05-18T21:57:55.736Z,8.23
2019-05-18T22:00:26.800Z,8.05
2019-05-18T22:02:58.678Z,8.43
2019-05-18T22:05:28.701Z,8.60
2019-05-18T22:07:58.790Z,7.75
2019-05-18T22:10:29.121Z,8.45
2019-05-18T22:12:59.273Z,8.13
2019-05-18T22:15:30.540Z,8.40
2019-05-18T22:18:03.498Z,7.75
2019-05-18T22:20:35.037Z,8.35
2019-05-18T22:23:05.574Z,9.98
2019-05-18T22:25:35.725Z,9.88
2019-05-18T22:28:06.045Z,9.95
2019-05-18T22:30:36.356Z,9.75
2019-05-18T22:33:06.524Z,9.23
2019-05-18T22:35:36.763Z,8.85
2019-05-18T22:38:08.461Z,8.40
2019-05-18T22:40:38.677Z,8.70
2019-05-18T22:43:08.920Z,8.85
2019-05-18T22:45:39.079Z,8.83
2019-05-18T22:48:09.293Z,9.53
2019-05-18T22:50:39.533Z,8.88
2019-05-18T22:53:09.726Z,6.67
2019-05-18T22:55:39.804Z,3.50
2019-05-18T22:58:10.136Z,3.00
2019-05-18T23:00:40.352Z,2.45
2019-05-18T23:03:10.579Z,2.05
2019-05-18T23:05:40.825Z,1.30
2019-05-18T23:08:10.967Z,1.40
2019-05-18T23:10:41.050Z,1.20
2019-05-18T23:13:11.346Z,1.30
2019-05-18T23:15:41.470Z,1.40
2019-05-18T23:18:11.593Z,1.40
2019-05-18T23:20:41.829Z,1.52
2019-05-18T23:23:12.046Z,1.20
2019-05-18T23:25:42.201Z,1.45
2019-05-18T23:28:12.267Z,1.22
2019-05-18T23:30:42.502Z,1.32
2019-05-18T23:33:12.730Z,1.15
2019-05-18T23:35:42.926Z,1.10
2019-05-18T23:38:13.137Z,1.30
2019-05-18T23:40:43.157Z,1.20
2019-05-18T23:43:13.467Z,1.50
2019-05-18T23:45:43.712Z,1.27
2019-05-18T23:48:13.919Z,1.60
2019-05-18T23:50:44.139Z,1.35
2019-05-18T23:53:14.279Z,1.20
2019-05-18T23:55:45.433Z,1.35
2019-05-18T23:58:15.573Z,1.52
